sensor_id;sensor_type;location;lat;lon;timestamp;temperature;humidity
56046;DHT22;41913;51.030;3.706;2023-02-01T00:02:03;19.70;81.10
56046;DHT22;41913;51.030;3.706;2023-02-01T00:04:28;19.70;81.20
56046;DHT22;41913;51.030;3.706;2023-02-01T00:06:54;19.70;81.10
56046;DHT22;41913;51.030;3.706;2023-02-01T00:09:20;19.70;81.10
56046;DHT22;41913;51.030;3.706;2023-02-01T00:11:47;19.70;81.20
56046;DHT22;41913;51.030;3.706;2023-02-01T00:14:13;19.70;81.20
56046;DHT22;41913;51.030;3.706;2023-02-01T00:16:39;19.70;81.20
56046;DHT22;41913;51.030;3.706;2023-02-01T00:19:11;19.60;81.20
56046;DHT22;41913;51.030;3.706;2023-02-01T00:21:37;19.70;81.20
56046;DHT22;41913;51.030;3.706;2023-02-01T00:24:03;19.60;81.20
56046;DHT22;41913;51.030;3.706;2023-02-01T00:26:33;19.60;81.20
56046;DHT22;41913;51.030;3.706;2023-02-01T00:29:01;19.60;81.20
56046;DHT22;41913;51.030;3.706;2023-02-01T00:31:27;19.60;81.20
56046;DHT22;41913;51.030;3.706;2023-02-01T00:33:53;19.60;81.20
56046;DHT22;41913;51.030;3.706;2023-02-01T00:36:19;19.60;81.20
56046;DHT22;41913;51.030;3.706;2023-02-01T00:38:45;19.60;81.20
56046;DHT22;41913;51.030;3.706;2023-02-01T00:41:15;19.50;81.20
56046;DHT22;41913;51.030;3.706;2023-02-01T00:43:41;19.50;81.80
56046;DHT22;41913;51.030;3.706;2023-02-01T00:46:08;19.50;81.20
56046;DHT22;41913;51.030;3.706;2023-02-01T00:48:36;19.50;81.20
56046;DHT22;41913;51.030;3.706;2023-02-01T00:51:07;19.50;81.20
56046;DHT22;41913;51.030;3.706;2023-02-01T00:53:33;19.50;81.20
56046;DHT22;41913;51.030;3.706;2023-02-01T00:56:05;19.50;81.20
56046;DHT22;41913;51.030;3.706;2023-02-01T00:58:32;19.50;81.20
56046;DHT22;41913;51.030;3.706;2023-02-01T01:01:10;19.50;81.20
56046;DHT22;41913;51.030;3.706;2023-02-01T01:03:39;19.50;81.20
56046;DHT22;41913;51.030;3.706;2023-02-01T01:06:09;19.40;81.20
56046;DHT22;41913;51.030;3.706;2023-02-01T01:08:37;19.40;81.30
56046;DHT22;41913;51.030;3.706;2023-02-01T01:11:09;19.40;81.30
56046;DHT22;41913;51.030;3.706;2023-02-01T01:13:36;19.40;81.30
56046;DHT22;41913;51.030;3.706;2023-02-01T01:16:05;19.40;81.30
56046;DHT22;41913;51.030;3.706;2023-02-01T01:18:34;19.40;81.30
56046;DHT22;41913;51.030;3.706;2023-02-01T01:21:01;19.40;81.30
56046;DHT22;41913;51.030;3.706;2023-02-01T01:23:27;19.40;81.30
56046;DHT22;41913;51.030;3.706;2023-02-01T01:25:59;19.40;81.30
56046;DHT22;41913;51.030;3.706;2023-02-01T01:28:27;19.40;81.30
56046;DHT22;41913;51.030;3.706;2023-02-01T01:30:54;19.40;81.30
56046;DHT22;41913;51.030;3.706;2023-02-01T01:33:20;19.30;81.30
56046;DHT22;41913;51.030;3.706;2023-02-01T01:35:46;19.30;81.30
56046;DHT22;41913;51.030;3.706;2023-02-01T01:38:12;19.30;81.30
56046;DHT22;41913;51.030;3.706;2023-02-01T01:40:37;19.30;81.30
56046;DHT22;41913;51.030;3.706;2023-02-01T01:43:03;19.30;81.30
56046;DHT22;41913;51.030;3.706;2023-02-01T01:45:33;19.30;81.30
56046;DHT22;41913;51.030;3.706;2023-02-01T01:48:11;19.30;81.30
56046;DHT22;41913;51.030;3.706;2023-02-01T01:50:44;19.30;81.30
56046;DHT22;41913;51.030;3.706;2023-02-01T01:53:17;19.30;81.40
56046;DHT22;41913;51.030;3.706;2023-02-01T01:55:45;19.30;81.40
56046;DHT22;41913;51.030;3.706;2023-02-01T01:58:18;19.20;81.30
56046;DHT22;41913;51.030;3.706;2023-02-01T02:00:45;19.20;81.30
56046;DHT22;41913;51.030;3.706;2023-02-01T02:03:13;19.20;81.20
56046;DHT22;41913;51.030;3.706;2023-02-01T02:05:39;19.20;81.20
56046;DHT22;41913;51.030;3.706;2023-02-01T02:08:05;19.20;81.30
56046;DHT22;41913;51.030;3.706;2023-02-01T02:10:31;19.20;81.20
56046;DHT22;41913;51.030;3.706;2023-02-01T02:13:16;19.20;81.30
56046;DHT22;41913;51.030;3.706;2023-02-01T02:15:52;19.20;81.20
56046;DHT22;41913;51.030;3.706;2023-02-01T02:21:16;19.10;81.10
56046;DHT22;41913;51.030;3.706;2023-02-01T02:34:22;19.10;81.00
56046;DHT22;41913;51.030;3.706;2023-02-01T02:37:17;19.10;81.10
56046;DHT22;41913;51.030;3.706;2023-02-01T02:45:54;19.10;80.90
56046;DHT22;41913;51.030;3.706;2023-02-01T02:48:51;19.00;80.90
56046;DHT22;41913;51.030;3.706;2023-02-01T02:51:37;19.00;81.00
56046;DHT22;41913;51.030;3.706;2023-02-01T02:54:25;19.00;81.00
56046;DHT22;41913;51.030;3.706;2023-02-01T02:57:56;19.00;81.00
56046;DHT22;41913;51.030;3.706;2023-02-01T03:00:28;19.00;81.00
56046;DHT22;41913;51.030;3.706;2023-02-01T03:03:13;19.00;81.50
56046;DHT22;41913;51.030;3.706;2023-02-01T03:05:57;19.00;81.00
56046;DHT22;41913;51.030;3.706;2023-02-01T03:08:25;19.00;81.00
56046;DHT22;41913;51.030;3.706;2023-02-01T03:11:00;19.00;81.00
56046;DHT22;41913;51.030;3.706;2023-02-01T03:16:28;18.90;80.90
56046;DHT22;41913;51.030;3.706;2023-02-01T03:19:08;18.90;80.80
56046;DHT22;41913;51.030;3.706;2023-02-01T03:24:25;18.90;80.80
56046;DHT22;41913;51.030;3.706;2023-02-01T03:32:14;18.90;80.80
56046;DHT22;41913;51.030;3.706;2023-02-01T03:34:40;18.90;80.80
56046;DHT22;41913;51.030;3.706;2023-02-01T03:37:11;18.90;80.80
56046;DHT22;41913;51.030;3.706;2023-02-01T03:40:08;18.90;80.80
56046;DHT22;41913;51.030;3.706;2023-02-01T03:42:48;18.90;80.80
56046;DHT22;41913;51.030;3.706;2023-02-01T03:47:49;18.80;80.70
56046;DHT22;41913;51.030;3.706;2023-02-01T03:50:23;18.80;80.70
56046;DHT22;41913;51.030;3.706;2023-02-01T03:53:12;18.90;80.80
56046;DHT22;41913;51.030;3.706;2023-02-01T03:55:40;18.80;80.70
56046;DHT22;41913;51.030;3.706;2023-02-01T03:58:15;18.80;80.70
56046;DHT22;41913;51.030;3.706;2023-02-01T04:00:45;18.80;80.60
56046;DHT22;41913;51.030;3.706;2023-02-01T04:03:11;18.80;80.70
56046;DHT22;41913;51.030;3.706;2023-02-01T04:05:37;18.80;80.60
56046;DHT22;41913;51.030;3.706;2023-02-01T04:08:06;18.80;80.60
56046;DHT22;41913;51.030;3.706;2023-02-01T04:10:32;18.80;80.60
56046;DHT22;41913;51.030;3.706;2023-02-01T04:12:58;18.80;80.60
56046;DHT22;41913;51.030;3.706;2023-02-01T04:15:24;18.80;80.60
56046;DHT22;41913;51.030;3.706;2023-02-01T04:17:51;18.70;80.50
56046;DHT22;41913;51.030;3.706;2023-02-01T04:20:17;18.70;80.50
56046;DHT22;41913;51.030;3.706;2023-02-01T04:22:43;18.70;80.50
56046;DHT22;41913;51.030;3.706;2023-02-01T04:25:09;18.70;80.50
56046;DHT22;41913;51.030;3.706;2023-02-01T04:27:35;18.70;80.50
56046;DHT22;41913;51.030;3.706;2023-02-01T04:30:02;18.70;80.50
56046;DHT22;41913;51.030;3.706;2023-02-01T04:32:28;18.70;80.40
56046;DHT22;41913;51.030;3.706;2023-02-01T04:34:53;18.70;80.40
56046;DHT22;41913;51.030;3.706;2023-02-01T04:37:20;18.70;80.40
56046;DHT22;41913;51.030;3.706;2023-02-01T04:39:46;18.70;80.40
56046;DHT22;41913;51.030;3.706;2023-02-01T04:42:12;18.70;80.40
56046;DHT22;41913;51.030;3.706;2023-02-01T04:44:38;18.70;80.40
56046;DHT22;41913;51.030;3.706;2023-02-01T04:47:07;18.70;80.50
56046;DHT22;41913;51.030;3.706;2023-02-01T04:49:33;18.70;80.50
56046;DHT22;41913;51.030;3.706;2023-02-01T04:51:59;18.70;80.50
56046;DHT22;41913;51.030;3.706;2023-02-01T04:54:25;18.60;80.40
56046;DHT22;41913;51.030;3.706;2023-02-01T04:56:50;18.60;80.40
56046;DHT22;41913;51.030;3.706;2023-02-01T04:59:17;18.60;80.40
56046;DHT22;41913;51.030;3.706;2023-02-01T05:01:44;18.70;80.50
56046;DHT22;41913;51.030;3.706;2023-02-01T05:04:09;18.60;80.40
56046;DHT22;41913;51.030;3.706;2023-02-01T05:06:35;18.60;80.40
56046;DHT22;41913;51.030;3.706;2023-02-01T05:09:01;18.60;80.40
56046;DHT22;41913;51.030;3.706;2023-02-01T05:11:26;18.60;80.40
56046;DHT22;41913;51.030;3.706;2023-02-01T05:14:11;18.60;80.40
56046;DHT22;41913;51.030;3.706;2023-02-01T05:16:37;18.60;80.40
56046;DHT22;41913;51.030;3.706;2023-02-01T05:19:03;18.60;80.40
56046;DHT22;41913;51.030;3.706;2023-02-01T05:21:29;18.50;80.40
56046;DHT22;41913;51.030;3.706;2023-02-01T05:23:54;18.60;80.40
56046;DHT22;41913;51.030;3.706;2023-02-01T05:26:36;18.60;80.40
56046;DHT22;41913;51.030;3.706;2023-02-01T05:29:04;18.50;80.40
56046;DHT22;41913;51.030;3.706;2023-02-01T05:31:29;18.50;80.40
56046;DHT22;41913;51.030;3.706;2023-02-01T05:33:55;18.50;80.40
56046;DHT22;41913;51.030;3.706;2023-02-01T05:36:21;18.50;80.30
56046;DHT22;41913;51.030;3.706;2023-02-01T05:38:47;18.50;80.40
56046;DHT22;41913;51.030;3.706;2023-02-01T05:41:12;18.50;80.30
56046;DHT22;41913;51.030;3.706;2023-02-01T05:43:38;18.50;80.30
56046;DHT22;41913;51.030;3.706;2023-02-01T05:46:05;18.50;80.30
56046;DHT22;41913;51.030;3.706;2023-02-01T05:48:31;18.50;80.30
56046;DHT22;41913;51.030;3.706;2023-02-01T05:50:56;18.50;80.40
56046;DHT22;41913;51.030;3.706;2023-02-01T05:53:22;18.50;80.40
56046;DHT22;41913;51.030;3.706;2023-02-01T05:55:48;18.50;80.40
56046;DHT22;41913;51.030;3.706;2023-02-01T05:58:14;18.50;80.30
56046;DHT22;41913;51.030;3.706;2023-02-01T06:00:39;18.50;80.30
56046;DHT22;41913;51.030;3.706;2023-02-01T06:03:11;18.40;80.30
56046;DHT22;41913;51.030;3.706;2023-02-01T06:05:36;18.40;80.30
56046;DHT22;41913;51.030;3.706;2023-02-01T06:08:02;18.40;80.20
56046;DHT22;41913;51.030;3.706;2023-02-01T06:10:28;18.40;80.20
56046;DHT22;41913;51.030;3.706;2023-02-01T06:12:54;18.40;80.20
56046;DHT22;41913;51.030;3.706;2023-02-01T06:15:19;18.40;80.20
56046;DHT22;41913;51.030;3.706;2023-02-01T06:17:47;18.40;80.20
56046;DHT22;41913;51.030;3.706;2023-02-01T06:20:15;18.40;80.20
56046;DHT22;41913;51.030;3.706;2023-02-01T06:22:42;18.50;80.20
56046;DHT22;41913;51.030;3.706;2023-02-01T06:25:09;18.50;80.10
56046;DHT22;41913;51.030;3.706;2023-02-01T06:27:35;18.60;80.10
56046;DHT22;41913;51.030;3.706;2023-02-01T06:30:04;18.70;80.20
56046;DHT22;41913;51.030;3.706;2023-02-01T06:32:30;18.80;80.80
56046;DHT22;41913;51.030;3.706;2023-02-01T06:34:56;19.00;81.90
56046;DHT22;41913;51.030;3.706;2023-02-01T06:37:23;19.10;82.70
56046;DHT22;41913;51.030;3.706;2023-02-01T06:39:50;19.20;83.10
56046;DHT22;41913;51.030;3.706;2023-02-01T06:42:16;19.30;83.00
56046;DHT22;41913;51.030;3.706;2023-02-01T06:44:42;19.40;83.00
56046;DHT22;41913;51.030;3.706;2023-02-01T06:47:08;19.40;82.90
56046;DHT22;41913;51.030;3.706;2023-02-01T06:49:34;19.50;82.80
56046;DHT22;41913;51.030;3.706;2023-02-01T06:52:00;19.50;82.70
56046;DHT22;41913;51.030;3.706;2023-02-01T06:54:26;19.60;82.70
56046;DHT22;41913;51.030;3.706;2023-02-01T06:56:52;19.60;82.90
56046;DHT22;41913;51.030;3.706;2023-02-01T06:59:18;19.70;83.80
56046;DHT22;41913;51.030;3.706;2023-02-01T07:01:43;19.80;83.30
56046;DHT22;41913;51.030;3.706;2023-02-01T07:04:12;19.90;83.90
56046;DHT22;41913;51.030;3.706;2023-02-01T07:06:39;20.00;83.30
56046;DHT22;41913;51.030;3.706;2023-02-01T07:09:05;20.10;83.30
56046;DHT22;41913;51.030;3.706;2023-02-01T07:11:31;20.20;83.30
56046;DHT22;41913;51.030;3.706;2023-02-01T07:13:57;20.30;83.20
56046;DHT22;41913;51.030;3.706;2023-02-01T07:16:26;20.40;83.20
56046;DHT22;41913;51.030;3.706;2023-02-01T07:18:52;20.50;83.10
56046;DHT22;41913;51.030;3.706;2023-02-01T07:21:19;20.60;83.00
56046;DHT22;41913;51.030;3.706;2023-02-01T07:23:45;20.70;82.80
56046;DHT22;41913;51.030;3.706;2023-02-01T07:26:13;20.80;82.60
56046;DHT22;41913;51.030;3.706;2023-02-01T07:28:40;20.90;82.40
56046;DHT22;41913;51.030;3.706;2023-02-01T07:31:08;20.90;82.10
56046;DHT22;41913;51.030;3.706;2023-02-01T07:33:34;21.00;82.10
56046;DHT22;41913;51.030;3.706;2023-02-01T07:36:02;21.10;81.80
56046;DHT22;41913;51.030;3.706;2023-02-01T07:38:28;21.10;81.80
56046;DHT22;41913;51.030;3.706;2023-02-01T07:41:02;21.10;81.60
56046;DHT22;41913;51.030;3.706;2023-02-01T07:43:28;21.20;81.60
56046;DHT22;41913;51.030;3.706;2023-02-01T07:45:55;21.30;81.60
56046;DHT22;41913;51.030;3.706;2023-02-01T07:48:22;21.30;82.10
56046;DHT22;41913;51.030;3.706;2023-02-01T07:50:52;21.40;81.70
56046;DHT22;41913;51.030;3.706;2023-02-01T07:53:21;21.50;82.40
56046;DHT22;41913;51.030;3.706;2023-02-01T07:55:47;21.50;83.20
56046;DHT22;41913;51.030;3.706;2023-02-01T07:58:13;21.60;82.60
56046;DHT22;41913;51.030;3.706;2023-02-01T08:00:40;21.60;81.90
56046;DHT22;41913;51.030;3.706;2023-02-01T08:03:24;21.60;81.40
56046;DHT22;41913;51.030;3.706;2023-02-01T08:05:55;21.50;81.00
56046;DHT22;41913;51.030;3.706;2023-02-01T08:08:22;21.50;80.60
56046;DHT22;41913;51.030;3.706;2023-02-01T08:10:49;21.50;80.20
56046;DHT22;41913;51.030;3.706;2023-02-01T08:13:15;21.50;79.80
56046;DHT22;41913;51.030;3.706;2023-02-01T08:15:41;21.50;79.60
56046;DHT22;41913;51.030;3.706;2023-02-01T08:18:09;21.60;79.60
56046;DHT22;41913;51.030;3.706;2023-02-01T08:20:42;21.60;79.80
56046;DHT22;41913;51.030;3.706;2023-02-01T08:23:11;21.60;80.10
56046;DHT22;41913;51.030;3.706;2023-02-01T08:25:47;21.70;79.80
56046;DHT22;41913;51.030;3.706;2023-02-01T08:28:13;21.80;79.80
56046;DHT22;41913;51.030;3.706;2023-02-01T08:30:41;21.80;79.50
56046;DHT22;41913;51.030;3.706;2023-02-01T08:33:10;21.80;79.50
56046;DHT22;41913;51.030;3.706;2023-02-01T08:35:37;21.90;79.60
56046;DHT22;41913;51.030;3.706;2023-02-01T08:38:03;21.90;79.70
56046;DHT22;41913;51.030;3.706;2023-02-01T08:40:29;22.00;79.80
56046;DHT22;41913;51.030;3.706;2023-02-01T08:42:55;22.00;79.90
56046;DHT22;41913;51.030;3.706;2023-02-01T08:45:24;22.00;79.90
56046;DHT22;41913;51.030;3.706;2023-02-01T08:47:53;22.10;79.90
56046;DHT22;41913;51.030;3.706;2023-02-01T08:50:21;22.20;80.00
56046;DHT22;41913;51.030;3.706;2023-02-01T08:52:48;22.20;79.90
56046;DHT22;41913;51.030;3.706;2023-02-01T08:55:15;22.20;80.00
56046;DHT22;41913;51.030;3.706;2023-02-01T08:57:44;22.20;79.90
56046;DHT22;41913;51.030;3.706;2023-02-01T09:00:17;22.20;79.90
56046;DHT22;41913;51.030;3.706;2023-02-01T09:02:43;22.30;79.90
56046;DHT22;41913;51.030;3.706;2023-02-01T09:05:12;22.30;79.80
56046;DHT22;41913;51.030;3.706;2023-02-01T09:07:42;22.30;79.80
56046;DHT22;41913;51.030;3.706;2023-02-01T09:10:13;22.30;79.70
56046;DHT22;41913;51.030;3.706;2023-02-01T09:12:42;22.30;79.60
56046;DHT22;41913;51.030;3.706;2023-02-01T09:15:08;22.30;79.60
56046;DHT22;41913;51.030;3.706;2023-02-01T09:17:40;22.30;79.60
56046;DHT22;41913;51.030;3.706;2023-02-01T09:20:10;22.20;79.50
56046;DHT22;41913;51.030;3.706;2023-02-01T09:22:36;22.20;79.60
56046;DHT22;41913;51.030;3.706;2023-02-01T09:25:01;22.20;79.60
56046;DHT22;41913;51.030;3.706;2023-02-01T09:27:29;22.10;79.50
56046;DHT22;41913;51.030;3.706;2023-02-01T09:29:55;22.20;79.60
56046;DHT22;41913;51.030;3.706;2023-02-01T09:32:23;22.10;79.50
56046;DHT22;41913;51.030;3.706;2023-02-01T09:34:50;22.10;79.50
56046;DHT22;41913;51.030;3.706;2023-02-01T09:37:18;22.10;79.50
56046;DHT22;41913;51.030;3.706;2023-02-01T09:39:44;22.10;79.40
56046;DHT22;41913;51.030;3.706;2023-02-01T09:45:09;22.10;79.20
56046;DHT22;41913;51.030;3.706;2023-02-01T09:47:42;22.20;79.10
56046;DHT22;41913;51.030;3.706;2023-02-01T09:50:21;22.20;79.00
56046;DHT22;41913;51.030;3.706;2023-02-01T09:52:56;22.20;79.00
56046;DHT22;41913;51.030;3.706;2023-02-01T09:55:36;22.10;78.90
56046;DHT22;41913;51.030;3.706;2023-02-01T10:01:02;22.10;78.40
56046;DHT22;41913;51.030;3.706;2023-02-01T10:03:30;22.10;78.20
56046;DHT22;41913;51.030;3.706;2023-02-01T10:06:13;22.10;78.10
56046;DHT22;41913;51.030;3.706;2023-02-01T10:12:04;22.20;77.90
56046;DHT22;41913;51.030;3.706;2023-02-01T10:15:15;22.10;77.90
56046;DHT22;41913;51.030;3.706;2023-02-01T10:18:21;22.10;77.80
56046;DHT22;41913;51.030;3.706;2023-02-01T10:21:11;22.10;78.30
56046;DHT22;41913;51.030;3.706;2023-02-01T10:26:25;22.00;77.70
56046;DHT22;41913;51.030;3.706;2023-02-01T10:28:58;22.00;77.70
56046;DHT22;41913;51.030;3.706;2023-02-01T10:31:30;21.90;77.60
56046;DHT22;41913;51.030;3.706;2023-02-01T10:34:07;21.90;77.70
56046;DHT22;41913;51.030;3.706;2023-02-01T10:36:49;21.90;77.70
56046;DHT22;41913;51.030;3.706;2023-02-01T10:39:16;21.90;77.70
56046;DHT22;41913;51.030;3.706;2023-02-01T10:41:43;21.90;77.80
56046;DHT22;41913;51.030;3.706;2023-02-01T10:44:16;21.90;77.80
56046;DHT22;41913;51.030;3.706;2023-02-01T10:46:43;22.00;77.80
56046;DHT22;41913;51.030;3.706;2023-02-01T10:49:38;21.90;77.70
56046;DHT22;41913;51.030;3.706;2023-02-01T10:52:19;21.90;77.70
56046;DHT22;41913;51.030;3.706;2023-02-01T10:54:46;22.00;77.80
56046;DHT22;41913;51.030;3.706;2023-02-01T10:57:34;22.00;77.70
56046;DHT22;41913;51.030;3.706;2023-02-01T11:00:13;22.10;77.70
56046;DHT22;41913;51.030;3.706;2023-02-01T11:02:44;22.00;77.50
56046;DHT22;41913;51.030;3.706;2023-02-01T11:05:10;22.00;77.50
56046;DHT22;41913;51.030;3.706;2023-02-01T11:07:39;22.10;77.60
56046;DHT22;41913;51.030;3.706;2023-02-01T11:10:40;22.00;77.60
56046;DHT22;41913;51.030;3.706;2023-02-01T11:13:13;22.00;77.60
56046;DHT22;41913;51.030;3.706;2023-02-01T11:15:46;22.10;77.70
56046;DHT22;41913;51.030;3.706;2023-02-01T11:18:26;22.00;77.50
56046;DHT22;41913;51.030;3.706;2023-02-01T11:20:55;22.00;77.50
56046;DHT22;41913;51.030;3.706;2023-02-01T11:23:25;22.00;77.50
56046;DHT22;41913;51.030;3.706;2023-02-01T11:26:10;22.00;77.60
56046;DHT22;41913;51.030;3.706;2023-02-01T11:28:58;22.00;77.60
56046;DHT22;41913;51.030;3.706;2023-02-01T11:31:26;21.90;77.60
56046;DHT22;41913;51.030;3.706;2023-02-01T11:33:55;21.90;77.70
56046;DHT22;41913;51.030;3.706;2023-02-01T11:36:28;21.90;77.70
56046;DHT22;41913;51.030;3.706;2023-02-01T11:39:19;21.90;77.70
56046;DHT22;41913;51.030;3.706;2023-02-01T11:42:11;21.80;77.40
56046;DHT22;41913;51.030;3.706;2023-02-01T11:44:42;21.80;77.30
56046;DHT22;41913;51.030;3.706;2023-02-01T11:50:00;21.80;76.40
56046;DHT22;41913;51.030;3.706;2023-02-01T12:01:19;21.90;76.10
56046;DHT22;41913;51.030;3.706;2023-02-01T12:06:51;21.90;75.90
56046;DHT22;41913;51.030;3.706;2023-02-01T12:12:27;21.90;75.80
56046;DHT22;41913;51.030;3.706;2023-02-01T12:21:02;22.00;75.80
56046;DHT22;41913;51.030;3.706;2023-02-01T12:23:57;22.00;75.80
56046;DHT22;41913;51.030;3.706;2023-02-01T12:26:43;22.00;75.90
56046;DHT22;41913;51.030;3.706;2023-02-01T12:42:29;22.20;76.00
56046;DHT22;41913;51.030;3.706;2023-02-01T12:45:07;22.20;76.00
56046;DHT22;41913;51.030;3.706;2023-02-01T12:48:08;22.20;76.00
56046;DHT22;41913;51.030;3.706;2023-02-01T12:50:45;22.20;76.10
56046;DHT22;41913;51.030;3.706;2023-02-01T12:53:20;22.20;76.10
56046;DHT22;41913;51.030;3.706;2023-02-01T12:55:55;22.20;76.20
56046;DHT22;41913;51.030;3.706;2023-02-01T12:58:32;22.20;76.20
56046;DHT22;41913;51.030;3.706;2023-02-01T13:01:06;22.30;76.20
56046;DHT22;41913;51.030;3.706;2023-02-01T13:03:44;22.30;76.20
56046;DHT22;41913;51.030;3.706;2023-02-01T13:06:35;22.30;76.10
56046;DHT22;41913;51.030;3.706;2023-02-01T13:12:22;22.40;76.10
56046;DHT22;41913;51.030;3.706;2023-02-01T13:14:53;22.40;76.10
56046;DHT22;41913;51.030;3.706;2023-02-01T13:17:31;22.40;76.00
56046;DHT22;41913;51.030;3.706;2023-02-01T13:23:08;22.50;76.60
56046;DHT22;41913;51.030;3.706;2023-02-01T13:25:37;22.50;76.00
56046;DHT22;41913;51.030;3.706;2023-02-01T13:28:10;22.50;76.00
56046;DHT22;41913;51.030;3.706;2023-02-01T13:30:59;22.50;75.90
56046;DHT22;41913;51.030;3.706;2023-02-01T13:33:43;22.60;76.00
56046;DHT22;41913;51.030;3.706;2023-02-01T13:41:56;22.60;75.90
56046;DHT22;41913;51.030;3.706;2023-02-01T13:44:30;22.60;75.70
56046;DHT22;41913;51.030;3.706;2023-02-01T13:47:03;22.50;75.70
56046;DHT22;41913;51.030;3.706;2023-02-01T13:49:50;22.50;75.70
56046;DHT22;41913;51.030;3.706;2023-02-01T13:52:38;22.50;75.80
56046;DHT22;41913;51.030;3.706;2023-02-01T13:57:45;22.40;75.80
56046;DHT22;41913;51.030;3.706;2023-02-01T14:03:12;22.40;75.80
56046;DHT22;41913;51.030;3.706;2023-02-01T14:10:57;22.30;76.00
56046;DHT22;41913;51.030;3.706;2023-02-01T14:13:38;22.30;75.80
56046;DHT22;41913;51.030;3.706;2023-02-01T14:21:31;22.20;76.10
56046;DHT22;41913;51.030;3.706;2023-02-01T14:26:57;22.20;76.00
56046;DHT22;41913;51.030;3.706;2023-02-01T14:29:36;22.20;76.10
56046;DHT22;41913;51.030;3.706;2023-02-01T14:34:49;22.20;76.10
56046;DHT22;41913;51.030;3.706;2023-02-01T14:47:55;22.10;76.30
56046;DHT22;41913;51.030;3.706;2023-02-01T14:50:43;22.10;76.60
56046;DHT22;41913;51.030;3.706;2023-02-01T14:55:46;22.00;76.90
56046;DHT22;41913;51.030;3.706;2023-02-01T14:58:19;22.00;76.90
56046;DHT22;41913;51.030;3.706;2023-02-01T15:00:58;22.10;76.90
56046;DHT22;41913;51.030;3.706;2023-02-01T15:03:45;22.10;76.90
56046;DHT22;41913;51.030;3.706;2023-02-01T15:06:41;22.00;76.80
56046;DHT22;41913;51.030;3.706;2023-02-01T15:09:20;22.00;76.90
56046;DHT22;41913;51.030;3.706;2023-02-01T15:14:31;22.00;77.00
56046;DHT22;41913;51.030;3.706;2023-02-01T15:16:57;22.00;76.90
56046;DHT22;41913;51.030;3.706;2023-02-01T15:19:25;22.00;77.00
56046;DHT22;41913;51.030;3.706;2023-02-01T15:21:59;22.00;77.00
56046;DHT22;41913;51.030;3.706;2023-02-01T15:24:32;22.00;76.90
56046;DHT22;41913;51.030;3.706;2023-02-01T15:27:05;22.00;76.90
56046;DHT22;41913;51.030;3.706;2023-02-01T15:29:32;22.00;77.50
56046;DHT22;41913;51.030;3.706;2023-02-01T15:32:00;21.90;77.00
56046;DHT22;41913;51.030;3.706;2023-02-01T15:35:30;21.90;77.00
56046;DHT22;41913;51.030;3.706;2023-02-01T15:37:52;21.90;77.00
56046;DHT22;41913;51.030;3.706;2023-02-01T15:40:21;21.90;77.10
56046;DHT22;41913;51.030;3.706;2023-02-01T15:42:55;21.90;77.20
56046;DHT22;41913;51.030;3.706;2023-02-01T15:45:27;21.90;77.20
56046;DHT22;41913;51.030;3.706;2023-02-01T15:47:57;21.90;77.10
56046;DHT22;41913;51.030;3.706;2023-02-01T15:50:26;21.90;77.10
56046;DHT22;41913;51.030;3.706;2023-02-01T15:52:56;21.90;77.00
56046;DHT22;41913;51.030;3.706;2023-02-01T15:55:37;21.90;77.00
56046;DHT22;41913;51.030;3.706;2023-02-01T15:58:17;21.90;77.00
56046;DHT22;41913;51.030;3.706;2023-02-01T16:00:52;21.90;77.00
56046;DHT22;41913;51.030;3.706;2023-02-01T16:03:39;21.90;77.10
56046;DHT22;41913;51.030;3.706;2023-02-01T16:06:27;21.90;77.20
56046;DHT22;41913;51.030;3.706;2023-02-01T16:09:11;21.90;77.10
56046;DHT22;41913;51.030;3.706;2023-02-01T16:11:51;21.90;77.00
56046;DHT22;41913;51.030;3.706;2023-02-01T16:14:17;21.90;76.90
56046;DHT22;41913;51.030;3.706;2023-02-01T16:16:43;21.90;76.90
56046;DHT22;41913;51.030;3.706;2023-02-01T16:19:09;21.90;76.70
56046;DHT22;41913;51.030;3.706;2023-02-01T16:21:35;21.90;76.70
56046;DHT22;41913;51.030;3.706;2023-02-01T16:24:00;21.90;76.70
56046;DHT22;41913;51.030;3.706;2023-02-01T16:26:31;21.90;76.60
56046;DHT22;41913;51.030;3.706;2023-02-01T16:28:57;21.90;76.60
56046;DHT22;41913;51.030;3.706;2023-02-01T16:31:29;21.90;76.70
56046;DHT22;41913;51.030;3.706;2023-02-01T16:33:55;21.90;76.70
56046;DHT22;41913;51.030;3.706;2023-02-01T16:36:22;21.90;76.60
56046;DHT22;41913;51.030;3.706;2023-02-01T16:38:49;21.90;76.60
56046;DHT22;41913;51.030;3.706;2023-02-01T16:41:18;21.90;76.60
56046;DHT22;41913;51.030;3.706;2023-02-01T16:43:44;21.90;76.50
56046;DHT22;41913;51.030;3.706;2023-02-01T16:46:14;21.90;76.60
56046;DHT22;41913;51.030;3.706;2023-02-01T16:48:48;21.90;76.50
56046;DHT22;41913;51.030;3.706;2023-02-01T16:51:16;22.00;76.60
56046;DHT22;41913;51.030;3.706;2023-02-01T16:53:42;21.90;76.50
56046;DHT22;41913;51.030;3.706;2023-02-01T16:56:17;21.90;76.60
56046;DHT22;41913;51.030;3.706;2023-02-01T16:58:43;21.90;76.60
56046;DHT22;41913;51.030;3.706;2023-02-01T17:01:14;21.90;76.70
56046;DHT22;41913;51.030;3.706;2023-02-01T17:03:42;21.90;76.70
56046;DHT22;41913;51.030;3.706;2023-02-01T17:06:11;21.90;76.90
56046;DHT22;41913;51.030;3.706;2023-02-01T17:08:41;21.90;76.70
56046;DHT22;41913;51.030;3.706;2023-02-01T17:11:07;21.90;76.70
56046;DHT22;41913;51.030;3.706;2023-02-01T17:13:34;21.90;76.60
56046;DHT22;41913;51.030;3.706;2023-02-01T17:16:04;21.90;76.30
56046;DHT22;41913;51.030;3.706;2023-02-01T17:18:33;22.00;76.30
56046;DHT22;41913;51.030;3.706;2023-02-01T17:21:00;22.00;76.20
56046;DHT22;41913;51.030;3.706;2023-02-01T17:23:27;22.00;76.00
56046;DHT22;41913;51.030;3.706;2023-02-01T17:25:53;22.00;76.00
56046;DHT22;41913;51.030;3.706;2023-02-01T17:28:20;22.00;76.00
56046;DHT22;41913;51.030;3.706;2023-02-01T17:30:46;22.00;76.10
56046;DHT22;41913;51.030;3.706;2023-02-01T17:33:35;22.00;76.10
56046;DHT22;41913;51.030;3.706;2023-02-01T17:36:03;22.00;76.00
56046;DHT22;41913;51.030;3.706;2023-02-01T17:38:30;22.00;76.00
56046;DHT22;41913;51.030;3.706;2023-02-01T17:40:56;22.00;76.00
56046;DHT22;41913;51.030;3.706;2023-02-01T17:43:24;22.00;76.00
56046;DHT22;41913;51.030;3.706;2023-02-01T17:45:55;22.00;75.70
56046;DHT22;41913;51.030;3.706;2023-02-01T17:48:23;22.00;75.40
56046;DHT22;41913;51.030;3.706;2023-02-01T17:50:49;22.00;75.30
56046;DHT22;41913;51.030;3.706;2023-02-01T17:53:20;22.00;75.20
56046;DHT22;41913;51.030;3.706;2023-02-01T17:55:49;22.00;75.30
56046;DHT22;41913;51.030;3.706;2023-02-01T17:58:16;21.90;75.30
56046;DHT22;41913;51.030;3.706;2023-02-01T18:00:44;21.90;75.40
56046;DHT22;41913;51.030;3.706;2023-02-01T18:03:20;21.90;75.50
56046;DHT22;41913;51.030;3.706;2023-02-01T18:05:47;21.80;75.50
56046;DHT22;41913;51.030;3.706;2023-02-01T18:08:16;21.80;75.70